createdAt,value
2017-08-01T00:00:47.284Z,7.67
2017-08-01T00:03:13.717Z,6.93
2017-08-01T00:05:40.131Z,7.43
2017-08-01T00:08:06.564Z,7.80
2017-08-01T00:10:32.988Z,7.93
2017-08-01T00:12:59.394Z,7.07
2017-08-01T00:15:26.541Z,7.20
2017-08-01T00:17:53.692Z,7.10
2017-08-01T00:20:20.849Z,7.73
2017-08-01T00:22:47.978Z,7.40
2017-08-01T00:25:14.387Z,7.90
2017-08-01T00:27:40.792Z,8.47
2017-08-01T00:30:07.185Z,8.67
2017-08-01T00:32:34.358Z,7.77
2017-08-01T00:35:00.785Z,8.10
2017-08-01T00:37:27.181Z,7.93
2017-08-01T00:39:53.594Z,7.33
2017-08-01T00:42:19.998Z,7.13
2017-08-01T00:44:46.404Z,7.83
2017-08-01T00:47:13.544Z,6.93
2017-08-01T00:49:39.974Z,7.60
2017-08-01T00:52:06.405Z,7.27
2017-08-01T00:54:32.805Z,7.23
2017-08-01T00:56:59.212Z,8.20
2017-08-01T00:59:25.775Z,6.70
2017-08-01T01:01:52.153Z,7.20
2017-08-01T01:04:19.677Z,6.10
2017-08-01T01:06:46.092Z,7.20
2017-08-01T01:09:12.479Z,6.97
2017-08-01T01:11:39.628Z,8.10
2017-08-01T01:14:06.773Z,7.43
2017-08-01T01:16:37.652Z,6.43
2017-08-01T01:19:04.068Z,7.13
2017-08-01T01:21:30.525Z,6.60
2017-08-01T01:23:56.940Z,6.67
2017-08-01T01:26:23.358Z,6.50
2017-08-01T01:28:49.781Z,8.50
2017-08-01T01:31:17.067Z,7.50
2017-08-01T01:33:43.557Z,7.93
2017-08-01T01:36:10.756Z,7.07
2017-08-01T01:38:37.225Z,6.13
2017-08-01T01:41:03.676Z,7.73
2017-08-01T01:43:30.863Z,7.97
2017-08-01T01:45:57.308Z,7.90
2017-08-01T01:48:23.800Z,7.73
2017-08-01T01:50:51.002Z,8.53
2017-08-01T01:53:17.464Z,8.17
2017-08-01T01:55:43.892Z,8.53
2017-08-01T01:58:10.301Z,7.70
2017-08-01T02:00:36.731Z,8.67
2017-08-01T02:03:03.125Z,8.77
2017-08-01T02:05:30.292Z,8.90
2017-08-01T02:07:56.707Z,8.07
2017-08-01T02:10:24.079Z,7.70
2017-08-01T02:12:50.524Z,7.60
2017-08-01T02:15:16.930Z,7.27
2017-08-01T02:17:44.112Z,8.07
2017-08-01T02:20:10.543Z,8.80
2017-08-01T02:22:36.993Z,8.47
2017-08-01T02:25:03.381Z,9.10
2017-08-01T02:27:30.553Z,8.33
2017-08-01T02:29:56.988Z,7.97
2017-08-01T02:32:23.454Z,8.43
2017-08-01T02:34:49.880Z,7.70
2017-08-01T02:37:16.292Z,7.73
2017-08-01T02:39:42.726Z,8.57
2017-08-01T02:42:09.126Z,8.50
2017-08-01T02:44:36.247Z,8.10
2017-08-01T02:47:02.677Z,8.97
2017-08-01T02:49:29.072Z,8.80
2017-08-01T02:51:55.467Z,8.60
2017-08-01T02:54:22.640Z,8.47
2017-08-01T02:56:49.057Z,8.80
2017-08-01T02:59:16.193Z,9.07
2017-08-01T03:01:42.571Z,9.30
2017-08-01T03:04:08.991Z,10.53
2017-08-01T03:06:35.403Z,10.13
2017-08-01T03:09:02.631Z,9.67
2017-08-01T03:11:29.148Z,9.20
2017-08-01T03:13:55.556Z,8.83
2017-08-01T03:16:22.015Z,9.33
2017-08-01T03:18:48.435Z,10.90
2017-08-01T03:21:14.817Z,10.93
2017-08-01T03:23:41.957Z,9.23
2017-08-01T03:26:08.396Z,9.20
2017-08-01T03:28:35.533Z,9.47
2017-08-01T03:31:01.944Z,9.57
2017-08-01T03:33:28.341Z,9.20
2017-08-01T03:35:54.770Z,8.60
2017-08-01T03:38:21.145Z,8.60
2017-08-01T03:40:47.548Z,8.30
2017-08-01T03:43:13.961Z,9.83
2017-08-01T03:45:40.360Z,8.70
2017-08-01T03:48:06.816Z,10.00
2017-08-01T03:50:33.948Z,9.33
2017-08-01T03:53:00.341Z,9.00
2017-08-01T03:55:26.751Z,9.10
2017-08-01T03:57:53.197Z,8.90
2017-08-01T04:00:19.592Z,9.60
2017-08-01T04:02:46.778Z,10.03
2017-08-01T04:05:13.177Z,9.80
2017-08-01T04:07:40.313Z,10.27
2017-08-01T04:10:06.724Z,9.40
2017-08-01T04:12:33.221Z,10.87
2017-08-01T04:14:59.626Z,9.00
2017-08-01T04:17:26.783Z,8.77
2017-08-01T04:19:53.593Z,8.93
2017-08-01T04:22:20.003Z,8.97
2017-08-01T04:24:46.418Z,10.00
2017-08-01T04:27:12.845Z,10.63
2017-08-01T04:29:39.235Z,10.33
2017-08-01T04:32:06.361Z,10.70
2017-08-01T04:34:32.765Z,10.53
2017-08-01T04:36:59.184Z,10.90
2017-08-01T04:39:25.610Z,12.03
2017-08-01T04:41:52.007Z,9.63
2017-08-01T04:44:18.482Z,10.17
2017-08-01T04:46:44.891Z,9.80
2017-08-01T04:49:11.271Z,9.90
2017-08-01T04:51:37.708Z,10.23
2017-08-01T04:54:04.128Z,9.60
2017-08-01T04:56:30.540Z,10.47
2017-08-01T04:58:56.945Z,10.03
2017-08-01T05:01:23.393Z,10.07
2017-08-01T05:03:50.557Z,10.23
2017-08-01T05:06:16.983Z,11.70
2017-08-01T05:08:44.158Z,10.50
2017-08-01T05:11:10.553Z,10.10
2017-08-01T05:13:37.672Z,10.27
2017-08-01T05:16:04.110Z,10.20
2017-08-01T05:18:30.596Z,8.77
2017-08-01T05:20:57.055Z,9.33
2017-08-01T05:23:23.440Z,9.10
2017-08-01T05:25:50.577Z,9.37
2017-08-01T05:28:16.995Z,9.63
2017-08-01T05:30:43.375Z,9.00
2017-08-01T05:33:09.778Z,9.13
2017-08-01T05:35:36.932Z,8.00
2017-08-01T05:38:04.092Z,10.07
2017-08-01T05:40:31.267Z,9.60
2017-08-01T05:42:57.669Z,7.90
2017-08-01T05:45:24.892Z,8.90
2017-08-01T05:47:51.278Z,8.20
2017-08-01T05:50:17.675Z,8.10
2017-08-01T05:52:44.081Z,8.67
2017-08-01T05:55:10.504Z,8.00
2017-08-01T05:57:36.884Z,8.53
2017-08-01T06:00:04.065Z,8.70
2017-08-01T06:02:30.481Z,8.70
2017-08-01T06:04:56.897Z,8.03
2017-08-01T06:07:24.052Z,7.80
2017-08-01T06:09:51.234Z,8.40
2017-08-01T06:12:17.658Z,6.97
2017-08-01T06:14:44.100Z,7.30
2017-08-01T06:17:10.571Z,7.30
2017-08-01T06:19:36.996Z,7.20
2017-08-01T06:22:03.540Z,7.03
2017-08-01T06:24:30.213Z,5.87
2017-08-01T06:26:56.612Z,6.00
2017-08-01T06:29:23.042Z,6.00
2017-08-01T06:31:49.504Z,5.77
2017-08-01T06:34:15.944Z,6.60
2017-08-01T06:36:43.099Z,6.20
2017-08-01T06:39:09.513Z,5.40
2017-08-01T06:41:36.711Z,5.30
2017-08-01T06:44:03.156Z,5.83
2017-08-01T06:46:29.572Z,5.60
2017-08-01T06:48:55.977Z,6.13
2017-08-01T06:51:22.407Z,5.60
2017-08-01T06:53:48.845Z,6.03
2017-08-01T06:56:15.269Z,6.43
2017-08-01T06:58:41.730Z,9.60
2017-08-01T07:01:08.138Z,6.70
2017-08-01T07:03:35.284Z,5.70
2017-08-01T07:06:02.425Z,6.10
2017-08-01T07:08:28.825Z,5.27
2017-08-01T07:11:02.080Z,5.37
2017-08-01T07:13:28.524Z,6.33
2017-08-01T07:15:54.936Z,5.80
2017-08-01T07:18:21.376Z,5.40
2017-08-01T07:20:47.802Z,5.67
2017-08-01T07:23:14.217Z,5.60
2017-08-01T07:25:40.673Z,4.97
2017-08-01T07:28:07.066Z,4.90
2017-08-01T07:33:52.207Z,5.70
2017-08-01T07:36:41.387Z,5.03
2017-08-01T07:42:11.114Z,4.50
2017-08-01T07:44:52.129Z,5.10
2017-08-01T07:47:21.275Z,4.40
2017-08-01T07:49:47.680Z,4.80
2017-08-01T07:52:14.820Z,4.80
2017-08-01T07:54:41.253Z,4.97
2017-08-01T07:57:07.657Z,5.40
2017-08-01T07:59:34.057Z,4.70
2017-08-01T08:02:00.462Z,6.43
2017-08-01T08:04:26.851Z,5.50
2017-08-01T08:06:53.272Z,4.83
2017-08-01T08:09:19.704Z,5.37
2017-08-01T08:11:46.110Z,5.17
2017-08-01T08:14:13.242Z,4.90
2017-08-01T08:16:39.644Z,4.40
2017-08-01T08:19:06.027Z,4.40
2017-08-01T08:21:33.180Z,5.37
2017-08-01T08:24:00.317Z,4.80
2017-08-01T08:26:26.696Z,4.73
2017-08-01T08:28:53.125Z,4.97
2017-08-01T08:31:19.609Z,4.90
2017-08-01T08:33:46.045Z,4.70
2017-08-01T08:36:12.437Z,4.90
2017-08-01T08:38:38.846Z,4.57
2017-08-01T08:41:05.248Z,5.30
2017-08-01T08:43:31.878Z,5.40
2017-08-01T08:45:59.028Z,4.77
2017-08-01T08:48:25.465Z,5.87
2017-08-01T08:50:51.865Z,4.67
2017-08-01T08:53:18.268Z,4.57
2017-08-01T08:55:44.685Z,4.57
2017-08-01T08:58:11.098Z,4.87
2017-08-01T09:00:37.502Z,4.50
2017-08-01T09:03:04.789Z,5.10
2017-08-01T09:05:31.184Z,5.20
2017-08-01T09:07:57.557Z,5.20
2017-08-01T09:10:23.939Z,5.47
2017-08-01T09:12:50.349Z,4.50
2017-08-01T09:15:16.741Z,4.30
2017-08-01T09:17:43.154Z,4.90
2017-08-01T09:20:09.583Z,4.80
2017-08-01T09:22:35.978Z,5.23
2017-08-01T09:25:02.406Z,4.70
2017-08-01T09:27:28.869Z,5.20
2017-08-01T09:29:55.451Z,5.13
2017-08-01T09:32:21.866Z,4.40
2017-08-01T09:34:48.328Z,4.20
2017-08-01T09:37:15.470Z,4.50
2017-08-01T09:39:42.580Z,4.20
2017-08-01T09:42:08.952Z,4.90
2017-08-01T09:44:36.089Z,4.60
2017-08-01T09:47:02.560Z,4.97
2017-08-01T09:49:28.980Z,5.23
2017-08-01T09:51:56.133Z,4.83
2017-08-01T09:54:22.546Z,4.40
2017-08-01T09:56:49.425Z,4.80
2017-08-01T09:59:15.834Z,4.50
2017-08-01T10:01:42.958Z,4.30
2017-08-01T10:04:09.333Z,4.17
2017-08-01T10:06:35.740Z,4.87
2017-08-01T10:09:02.942Z,4.50
2017-08-01T10:11:29.331Z,4.83
2017-08-01T10:13:56.469Z,4.20
2017-08-01T10:16:23.622Z,4.60
2017-08-01T10:18:50.747Z,5.07
2017-08-01T10:21:17.186Z,4.30
2017-08-01T10:23:43.588Z,5.10
2017-08-01T10:26:10.001Z,4.90
2017-08-01T10:28:36.393Z,4.20
2017-08-01T10:31:02.777Z,4.20
2017-08-01T10:33:29.186Z,4.60
2017-08-01T10:35:55.595Z,3.87
2017-08-01T10:38:21.986Z,4.33
2017-08-01T10:40:48.391Z,4.93
2017-08-01T10:43:14.792Z,4.00
2017-08-01T10:45:41.161Z,4.47
2017-08-01T10:48:07.568Z,5.03
2017-08-01T10:50:34.061Z,4.40
2017-08-01T10:53:00.466Z,4.40
2017-08-01T10:55:26.857Z,5.00
2017-08-01T10:57:53.232Z,4.20
2017-08-01T11:00:19.663Z,4.30
2017-08-01T11:02:46.057Z,4.63
2017-08-01T11:05:13.204Z,4.47
2017-08-01T11:07:40.340Z,4.70
2017-08-01T11:10:06.741Z,4.43
2017-08-01T11:12:33.195Z,4.87
2017-08-01T11:15:00.405Z,4.67
2017-08-01T11:17:26.836Z,4.50
2017-08-01T11:19:53.233Z,4.57
2017-08-01T11:22:19.632Z,4.13
2017-08-01T11:24:46.112Z,5.30
2017-08-01T11:27:13.262Z,4.50
2017-08-01T11:29:39.656Z,3.97
2017-08-01T11:32:06.084Z,4.37
2017-08-01T11:34:32.517Z,4.77
2017-08-01T11:37:05.825Z,4.97
2017-08-01T11:39:32.262Z,4.77
2017-08-01T11:41:58.659Z,4.93
2017-08-01T11:44:25.044Z,4.93
2017-08-01T11:46:51.412Z,3.93
2017-08-01T11:52:17.777Z,4.73
2017-08-01T11:54:44.242Z,4.33
2017-08-01T11:57:10.649Z,4.60
2017-08-01T11:59:37.055Z,5.03
2017-08-01T12:02:03.453Z,4.10
2017-08-01T12:04:29.893Z,4.10
2017-08-01T12:06:56.276Z,4.43
2017-08-01T12:09:22.655Z,4.87
2017-08-01T12:11:49.056Z,4.57
2017-08-01T12:14:15.509Z,4.30
2017-08-01T12:16:41.917Z,4.70
2017-08-01T12:19:08.296Z,5.07
2017-08-01T12:21:35.414Z,4.40
2017-08-01T12:24:01.833Z,3.87
2017-08-01T12:26:28.236Z,5.33
2017-08-01T12:28:54.637Z,4.43
2017-08-01T12:31:21.060Z,4.20
2017-08-01T12:33:47.448Z,4.53
2017-08-01T12:36:13.849Z,5.10
2017-08-01T12:38:40.981Z,4.07
2017-08-01T12:41:07.352Z,4.77
2017-08-01T12:43:33.751Z,4.57
2017-08-01T12:46:00.153Z,4.40
2017-08-01T12:48:26.576Z,4.50
2017-08-01T12:50:52.984Z,4.80
2017-08-01T12:53:19.392Z,4.60
2017-08-01T12:55:46.592Z,4.30
2017-08-01T12:58:12.976Z,4.30
2017-08-01T13:00:40.133Z,4.47
2017-08-01T13:03:07.251Z,4.17
2017-08-01T13:05:33.643Z,4.40
2017-08-01T13:08:00.330Z,4.40
2017-08-01T13:10:26.753Z,4.60
2017-08-01T13:12:53.151Z,3.83
2017-08-01T13:15:19.570Z,4.00
2017-08-01T13:17:45.971Z,4.10
2017-08-01T13:20:12.357Z,4.20
2017-08-01T13:22:38.752Z,4.70
2017-08-01T13:25:05.892Z,4.17
2017-08-01T13:27:33.012Z,4.13
2017-08-01T13:29:59.438Z,4.00
2017-08-01T13:32:25.900Z,4.20
2017-08-01T13:34:52.272Z,3.87
2017-08-01T13:37:33.599Z,3.73
2017-08-01T13:39:59.989Z,3.93
2017-08-01T13:42:26.423Z,4.30
2017-08-01T13:44:52.832Z,4.87
2017-08-01T13:47:19.976Z,3.90
2017-08-01T13:50:02.047Z,4.10
2017-08-01T13:52:28.445Z,4.40
2017-08-01T13:54:54.890Z,4.10
2017-08-01T13:57:21.279Z,4.10
2017-08-01T13:59:48.448Z,4.13
2017-08-01T14:02:14.831Z,4.60
2017-08-01T14:04:41.253Z,4.87
2017-08-01T14:07:07.642Z,3.97
2017-08-01T14:09:34.040Z,4.30
2017-08-01T14:12:01.198Z,4.77
2017-08-01T14:14:28.369Z,4.13
2017-08-01T14:16:54.780Z,3.87
2017-08-01T14:19:21.912Z,4.70
2017-08-01T14:21:48.293Z,4.30
2017-08-01T14:24:14.693Z,4.47
2017-08-01T14:26:41.843Z,4.30
2017-08-01T14:29:09.022Z,4.33
2017-08-01T14:31:35.445Z,4.27
2017-08-01T14:34:01.847Z,5.13
2017-08-01T14:36:28.256Z,3.90
2017-08-01T14:38:54.664Z,4.60
2017-08-01T14:41:21.082Z,4.30
2017-08-01T14:43:47.486Z,4.30
2017-08-01T14:46:14.612Z,4.40
2017-08-01T14:48:41.003Z,4.70
2017-08-01T14:51:07.394Z,4.27
2017-08-01T14:53:33.803Z,4.37
2017-08-01T14:56:00.201Z,4.30
2017-08-01T14:58:26.613Z,4.10
2017-08-01T15:00:53.747Z,3.93
2017-08-01T15:03:20.135Z,4.50
2017-08-01T15:05:46.529Z,3.97
2017-08-01T15:08:13.660Z,4.30
2017-08-01T15:10:40.089Z,4.63
2017-08-01T15:13:06.489Z,4.53
2017-08-01T15:15:32.909Z,4.70
2017-08-01T15:17:59.306Z,3.67
2017-08-01T15:20:26.430Z,4.07
2017-08-01T15:22:52.845Z,4.43
2017-08-01T15:25:19.231Z,4.67
2017-08-01T15:27:46.390Z,4.40
2017-08-01T15:30:12.839Z,4.83
2017-08-01T15:32:39.260Z,4.20
2017-08-01T15:35:05.671Z,4.47
2017-08-01T15:37:32.843Z,4.77
2017-08-01T15:39:59.278Z,5.20
2017-08-01T15:42:25.681Z,4.50
2017-08-01T15:44:52.831Z,4.57
2017-08-01T15:47:19.951Z,4.47
2017-08-01T15:49:46.340Z,4.67
2017-08-01T15:52:12.739Z,4.30
2017-08-01T15:54:39.127Z,4.50
2017-08-01T15:57:05.520Z,5.10
2017-08-01T15:59:32.674Z,4.67
2017-08-01T16:01:59.057Z,4.47
2017-08-01T16:04:25.514Z,4.33
2017-08-01T16:06:51.931Z,4.83
2017-08-01T16:09:18.351Z,4.80
2017-08-01T16:11:44.751Z,5.10
2017-08-01T16:14:11.242Z,6.00
2017-08-01T16:16:37.641Z,4.80
2017-08-01T16:19:04.042Z,4.13
2017-08-01T16:21:31.180Z,4.50
2017-08-01T16:23:58.316Z,4.50
2017-08-01T16:26:24.737Z,4.83
2017-08-01T16:28:51.125Z,4.83
2017-08-01T16:31:17.548Z,4.50
2017-08-01T16:33:44.251Z,5.03
2017-08-01T16:36:10.648Z,4.47
2017-08-01T16:38:37.054Z,5.33
2017-08-01T16:41:03.464Z,4.97
2017-08-01T16:43:30.607Z,5.10
2017-08-01T16:45:57.013Z,4.93
2017-08-01T16:48:23.427Z,5.60
2017-08-01T16:50:49.846Z,4.77
2017-08-01T16:53:16.232Z,5.27
2017-08-01T16:55:42.622Z,6.50
2017-08-01T16:58:08.998Z,5.80
2017-08-01T17:00:35.375Z,4.67
2017-08-01T17:03:01.792Z,5.30
2017-08-01T17:05:28.176Z,5.70
2017-08-01T17:07:54.584Z,5.80
2017-08-01T17:10:20.964Z,6.23
2017-08-01T17:12:47.364Z,6.40
2017-08-01T17:15:13.804Z,6.00
2017-08-01T17:17:40.192Z,5.67
2017-08-01T17:20:06.565Z,6.17
2017-08-01T17:22:32.962Z,6.30
2017-08-01T17:24:59.396Z,6.90
2017-08-01T17:27:26.181Z,5.97
2017-08-01T17:29:53.461Z,5.80
2017-08-01T17:32:20.613Z,7.07
2017-08-01T17:34:47.758Z,6.53
2017-08-01T17:37:14.153Z,6.17
2017-08-01T17:39:40.540Z,6.37
2017-08-01T17:42:06.927Z,6.30
2017-08-01T17:44:33.312Z,6.70
2017-08-01T17:47:00.052Z,6.50
2017-08-01T17:49:26.470Z,6.50
2017-08-01T17:51:53.606Z,5.93
2017-08-01T17:54:20.752Z,7.53
2017-08-01T17:56:47.153Z,7.17
2017-08-01T17:59:13.552Z,7.03
2017-08-01T18:01:39.968Z,6.03
2017-08-01T18:04:06.369Z,6.63
2017-08-01T18:06:32.782Z,6.37
2017-08-01T18:08:59.178Z,6.63
2017-08-01T18:11:26.308Z,6.90
2017-08-01T18:13:52.709Z,6.07
2017-08-01T18:16:19.304Z,6.50
2017-08-01T18:18:45.691Z,6.87
2017-08-01T18:21:12.095Z,7.30
2017-08-01T18:23:38.482Z,7.20
2017-08-01T18:26:04.874Z,6.53
2017-08-01T18:28:31.273Z,7.47
2017-08-01T18:30:57.668Z,7.77
2017-08-01T18:33:24.088Z,5.93
2017-08-01T18:35:50.522Z,6.20
2017-08-01T18:38:16.921Z,7.00
2017-08-01T18:40:43.317Z,7.40
2017-08-01T18:43:10.468Z,6.37
2017-08-01T18:45:44.585Z,7.70
2017-08-01T18:48:11.016Z,6.40
2017-08-01T18:50:37.423Z,6.80
2017-08-01T18:53:03.822Z,7.20
2017-08-01T18:55:45.174Z,6.93
2017-08-01T18:58:11.992Z,6.83
2017-08-01T19:00:38.388Z,6.00
2017-08-01T19:03:04.820Z,7.20
2017-08-01T19:05:31.249Z,8.47
2017-08-01T19:07:57.649Z,7.17
2017-08-01T19:10:24.037Z,7.03
2017-08-01T19:12:50.458Z,7.80
2017-08-01T19:15:16.850Z,6.73
2017-08-01T19:17:43.296Z,6.37
2017-08-01T19:20:09.725Z,7.13
2017-08-01T19:22:36.129Z,7.30
2017-08-01T19:25:03.264Z,6.70
2017-08-01T19:27:30.604Z,6.93
2017-08-01T19:29:56.998Z,7.00
2017-08-01T19:32:23.424Z,7.00
2017-08-01T19:34:49.832Z,7.00
2017-08-01T19:37:16.214Z,7.40
2017-08-01T19:39:57.547Z,6.33
2017-08-01T19:42:23.959Z,6.67
2017-08-01T19:44:50.368Z,7.10
2017-08-01T19:47:16.751Z,7.13
2017-08-01T19:49:43.157Z,6.43
2017-08-01T19:52:09.564Z,7.87
2017-08-01T19:54:35.941Z,7.43
2017-08-01T19:57:02.355Z,7.20
2017-08-01T19:59:29.522Z,7.10
2017-08-01T20:01:57.553Z,6.23
2017-08-01T20:04:23.997Z,8.00
2017-08-01T20:06:51.178Z,7.20
2017-08-01T20:09:17.606Z,7.20
2017-08-01T20:11:44.745Z,7.80
2017-08-01T20:14:11.896Z,7.03
2017-08-01T20:16:39.045Z,7.40
2017-08-01T20:19:05.494Z,7.17
2017-08-01T20:21:31.932Z,7.47
2017-08-01T20:23:58.332Z,8.63
2017-08-01T20:26:24.742Z,7.43
2017-08-01T20:28:51.153Z,7.97
2017-08-01T20:31:17.550Z,7.00
2017-08-01T20:33:44.668Z,7.60
2017-08-01T20:36:11.066Z,8.57
2017-08-01T20:38:37.459Z,7.87
2017-08-01T20:41:03.851Z,8.30
2017-08-01T20:43:30.224Z,8.17
2017-08-01T20:45:56.614Z,7.50
2017-08-01T20:48:23.013Z,7.40
2017-08-01T20:50:49.421Z,8.33
2017-08-01T20:53:16.562Z,8.20
2017-08-01T20:55:42.985Z,14.73
2017-08-01T20:58:09.396Z,9.77
2017-08-01T21:00:35.802Z,9.50
2017-08-01T21:03:02.200Z,9.50
2017-08-01T21:05:28.664Z,8.87
2017-08-01T21:07:55.469Z,9.80
2017-08-01T21:10:21.867Z,9.50
2017-08-01T21:12:48.280Z,9.40
2017-08-01T21:15:14.669Z,8.17
2017-08-01T21:17:41.075Z,8.33
2017-08-01T21:20:07.514Z,10.50
2017-08-01T21:22:33.950Z,9.20
2017-08-01T21:25:00.394Z,18.13
2017-08-01T21:27:26.823Z,13.20
2017-08-01T21:29:53.247Z,11.23
2017-08-01T21:32:19.680Z,10.70
2017-08-01T21:34:46.102Z,10.73
2017-08-01T21:37:12.516Z,10.23
2017-08-01T21:39:38.913Z,10.13
2017-08-01T21:42:06.055Z,10.07
2017-08-01T21:44:32.470Z,9.80
2017-08-01T21:46:58.864Z,9.80
2017-08-01T21:49:25.304Z,10.27
2017-08-01T21:51:51.711Z,11.50
2017-08-01T21:54:18.124Z,12.10
2017-08-01T21:56:45.288Z,12.00
2017-08-01T21:59:12.435Z,11.20
2017-08-01T22:01:39.597Z,10.80
2017-08-01T22:04:05.987Z,12.50
2017-08-01T22:06:32.448Z,11.23
2017-08-01T22:08:59.593Z,12.00
2017-08-01T22:11:26.740Z,11.70
2017-08-01T22:13:53.897Z,11.87
2017-08-01T22:16:21.051Z,12.20
2017-08-01T22:18:47.437Z,13.10
2017-08-01T22:21:13.812Z,13.87
2017-08-01T22:23:40.221Z,12.90
2017-08-01T22:26:06.630Z,13.17
2017-08-01T22:28:33.026Z,12.70
2017-08-01T22:30:59.428Z,12.20
2017-08-01T22:33:25.834Z,13.70
2017-08-01T22:35:52.235Z,13.63
2017-08-01T22:38:18.659Z,13.47
2017-08-01T22:40:45.075Z,13.53
2017-08-01T22:43:11.503Z,13.10
2017-08-01T22:45:38.653Z,13.87
2017-08-01T22:48:05.822Z,14.77
2017-08-01T22:50:32.224Z,13.77
2017-08-01T22:52:58.624Z,12.50
2017-08-01T22:55:25.031Z,14.57
2017-08-01T22:57:51.726Z,13.37
2017-08-01T23:00:18.166Z,13.70
2017-08-01T23:02:44.542Z,14.13
2017-08-01T23:05:10.959Z,15.30
2017-08-01T23:07:37.973Z,15.13
2017-08-01T23:10:05.111Z,13.70
2017-08-01T23:12:31.515Z,13.73
2017-08-01T23:14:57.934Z,12.80
2017-08-01T23:17:24.366Z,13.60
2017-08-01T23:19:50.783Z,15.60
2017-08-01T23:22:17.187Z,15.10
2017-08-01T23:24:43.582Z,15.13
2017-08-01T23:27:10.251Z,14.00
2017-08-01T23:29:36.651Z,14.40
2017-08-01T23:32:03.067Z,14.57
2017-08-01T23:34:29.477Z,14.17
2017-08-01T23:36:56.607Z,13.80
2017-08-01T23:39:23.010Z,14.23
2017-08-01T23:41:49.419Z,12.77
2017-08-01T23:44:15.858Z,11.40
2017-08-01T23:46:42.274Z,9.90
2017-08-01T23:49:08.708Z,9.23
2017-08-01T23:51:35.101Z,9.63
2017-08-01T23:54:01.513Z,7.73
2017-08-01T23:56:27.895Z,7.70
2017-08-01T23:58:54.285Z,7.33
